createdAt,value
2019-04-20T00:01:19.948Z,8.80
2019-04-20T00:03:48.240Z,8.80
2019-04-20T00:06:21.384Z,8.70
2019-04-20T00:09:04.949Z,8.70
2019-04-20T00:11:39.813Z,8.60
2019-04-20T00:14:07.062Z,8.60
2019-04-20T00:16:35.768Z,8.50
2019-04-20T00:19:09.292Z,8.50
2019-04-20T00:21:50.618Z,8.40
2019-04-20T00:24:26.922Z,8.40
2019-04-20T00:27:13.572Z,8.30
2019-04-20T00:29:45.235Z,8.30
2019-04-20T00:32:13.447Z,8.30
2019-04-20T00:34:38.295Z,8.20
2019-04-20T00:37:06.993Z,8.20
2019-04-20T00:39:38.878Z,8.20
2019-04-20T00:42:13.376Z,8.20
2019-04-20T00:44:45.829Z,8.10
2019-04-20T00:47:30.475Z,8.10
2019-04-20T00:50:02.558Z,8.10
2019-04-20T00:52:34.114Z,8.00
2019-04-20T00:54:58.024Z,8.00
2019-04-20T00:57:38.027Z,7.90
2019-04-20T01:00:22.887Z,7.90
2019-04-20T01:02:49.102Z,7.80
2019-04-20T01:05:35.410Z,7.80
2019-04-20T01:08:01.667Z,7.80
2019-04-20T01:10:38.508Z,7.80
2019-04-20T01:13:08.689Z,7.70
2019-04-20T01:15:48.874Z,7.70
2019-04-20T01:18:13.826Z,7.60
2019-04-20T01:20:45.144Z,7.60
2019-04-20T01:23:20.983Z,7.60
2019-04-20T01:25:57.895Z,7.50
2019-04-20T01:28:37.503Z,7.50
2019-04-20T01:31:06.485Z,7.40
2019-04-20T01:33:42.612Z,7.40
2019-04-20T01:36:19.630Z,7.30
2019-04-20T01:38:55.345Z,7.30
2019-04-20T01:41:09.600Z,7.30
2019-04-20T01:43:41.613Z,7.20
2019-04-20T01:46:19.817Z,7.20
2019-04-20T01:48:48.181Z,7.20
2019-04-20T01:51:26.385Z,7.10
2019-04-20T01:54:17.689Z,7.10
2019-04-20T01:56:47.590Z,7.10
2019-04-20T01:59:44.023Z,7.00
2019-04-20T02:02:35.487Z,7.00
2019-04-20T02:05:16.922Z,7.00
2019-04-20T02:07:48.800Z,6.90
2019-04-20T02:10:19.997Z,6.90
2019-04-20T02:12:57.574Z,6.90
2019-04-20T02:15:32.717Z,6.80
2019-04-20T02:18:11.793Z,6.80
2019-04-20T02:20:48.961Z,6.80
2019-04-20T02:23:19.947Z,6.70
2019-04-20T02:25:37.824Z,6.70
2019-04-20T02:28:27.751Z,6.70
2019-04-20T02:33:58.129Z,6.60
2019-04-20T02:36:45.756Z,6.60
2019-04-20T02:44:27.182Z,6.40
2019-04-20T02:52:02.986Z,6.30
2019-04-20T02:57:05.695Z,6.20
2019-04-20T03:02:01.428Z,6.20
2019-04-20T03:04:24.970Z,6.10
2019-04-20T03:07:06.765Z,6.10
2019-04-20T03:09:40.253Z,6.10
2019-04-20T03:12:18.540Z,6.00
2019-04-20T03:14:39.619Z,6.00
2019-04-20T03:17:25.608Z,6.00
2019-04-20T03:19:47.647Z,5.90
2019-04-20T03:22:48.311Z,5.90
2019-04-20T03:25:06.936Z,5.90
2019-04-20T03:27:41.038Z,5.80
2019-04-20T03:36:16.240Z,5.80
2019-04-20T03:38:33.009Z,5.70
2019-04-20T03:40:59.494Z,5.70
2019-04-20T03:43:20.164Z,5.70
2019-04-20T03:45:59.491Z,5.70
2019-04-20T03:48:41.163Z,5.70
2019-04-20T03:51:23.608Z,5.70
2019-04-20T03:54:08.537Z,5.70
2019-04-20T03:56:54.392Z,5.70
2019-04-20T03:59:43.728Z,5.70
2019-04-20T04:02:50.599Z,5.70
2019-04-20T04:05:19.359Z,5.80
2019-04-20T04:07:41.549Z,5.80
2019-04-20T04:10:20.676Z,5.80
2019-04-20T04:13:12.318Z,5.90
2019-04-20T04:15:52.292Z,5.90
2019-04-20T04:18:28.200Z,6.00
2019-04-20T04:21:02.955Z,6.20
2019-04-20T04:23:44.904Z,6.40
2019-04-20T04:26:17.173Z,6.50
2019-04-20T04:28:47.583Z,6.70
2019-04-20T04:31:28.023Z,6.80
2019-04-20T04:34:14.721Z,6.90
2019-04-20T04:36:30.153Z,7.10
2019-04-20T04:39:13.861Z,7.30
2019-04-20T04:41:39.806Z,7.40
2019-04-20T04:44:11.224Z,7.80
2019-04-20T04:46:29.131Z,8.10
2019-04-20T04:49:09.556Z,8.40
2019-04-20T04:51:44.653Z,8.60
2019-04-20T04:54:16.416Z,8.80
2019-04-20T04:56:41.715Z,8.90
2019-04-20T04:59:13.354Z,9.10
2019-04-20T05:01:46.983Z,9.20
2019-04-20T05:04:41.507Z,9.50
2019-04-20T05:07:07.273Z,9.80
2019-04-20T05:09:27.583Z,10.00
2019-04-20T05:12:05.366Z,10.20
2019-04-20T05:14:45.327Z,10.40
2019-04-20T05:17:21.944Z,10.50
2019-04-20T05:19:57.822Z,10.70
2019-04-20T05:22:31.075Z,10.80
2019-04-20T05:25:11.980Z,10.90
2019-04-20T05:27:51.199Z,11.00
2019-04-20T05:30:07.686Z,11.10
2019-04-20T05:32:47.832Z,11.30
2019-04-20T05:35:31.377Z,11.40
2019-04-20T05:38:13.290Z,11.50
2019-04-20T05:40:38.432Z,11.70
2019-04-20T05:43:22.899Z,11.90
2019-04-20T05:45:50.199Z,12.10
2019-04-20T05:48:26.150Z,12.30
2019-04-20T05:51:04.591Z,12.60
2019-04-20T05:53:38.570Z,12.80
2019-04-20T05:56:11.637Z,12.80
2019-04-20T05:58:44.811Z,12.90
2019-04-20T06:01:23.167Z,12.90
2019-04-20T06:03:49.044Z,13.10
2019-04-20T06:06:28.930Z,13.20
2019-04-20T06:08:59.644Z,13.40
2019-04-20T06:11:33.852Z,13.60
2019-04-20T06:14:10.477Z,13.80
2019-04-20T06:17:20.986Z,14.10
2019-04-20T06:19:46.673Z,14.50
2019-04-20T06:22:46.785Z,14.70
2019-04-20T06:25:23.984Z,14.70
2019-04-20T06:27:49.214Z,14.60
2019-04-20T06:30:12.180Z,14.40
2019-04-20T06:33:45.131Z,14.30
2019-04-20T06:38:49.722Z,14.20
2019-04-20T06:41:16.316Z,14.30
2019-04-20T06:43:40.937Z,14.50
2019-04-20T06:46:16.190Z,14.60
2019-04-20T06:48:46.087Z,14.90
2019-04-20T06:51:22.334Z,15.10
2019-04-20T06:53:52.517Z,15.30
2019-04-20T06:56:41.723Z,15.50
2019-04-20T06:59:21.574Z,15.80
2019-04-20T07:01:48.692Z,16.10
2019-04-20T07:04:36.518Z,16.30
2019-04-20T07:07:02.348Z,16.60
2019-04-20T07:09:32.451Z,16.70
2019-04-20T07:11:56.817Z,16.80
2019-04-20T07:14:25.883Z,17.00
2019-04-20T07:17:20.620Z,17.20
2019-04-20T07:19:51.765Z,17.60
2019-04-20T07:22:46.150Z,18.00
2019-04-20T07:25:02.479Z,18.30
2019-04-20T07:27:35.450Z,18.60
2019-04-20T07:30:14.999Z,18.70
2019-04-20T07:32:56.450Z,18.80
2019-04-20T07:35:22.062Z,18.90
2019-04-20T07:40:24.562Z,19.40
2019-04-20T07:42:58.744Z,19.50
2019-04-20T07:45:33.536Z,19.70
2019-04-20T07:48:11.263Z,19.80
2019-04-20T07:50:35.182Z,20.00
2019-04-20T07:53:08.913Z,20.20
2019-04-20T07:55:51.113Z,20.30
2019-04-20T07:58:10.898Z,20.50
2019-04-20T08:01:03.963Z,20.90
2019-04-20T08:03:38.709Z,21.20
2019-04-20T08:06:17.500Z,21.30
2019-04-20T08:08:57.377Z,21.50
2019-04-20T08:11:47.317Z,21.70
2019-04-20T08:14:13.096Z,21.90
2019-04-20T08:19:17.467Z,22.10
2019-04-20T08:21:50.005Z,22.00
2019-04-20T08:24:23.399Z,21.80
2019-04-20T08:26:44.376Z,21.90
2019-04-20T08:29:41.748Z,22.00
2019-04-20T08:32:32.477Z,22.00
2019-04-20T08:35:17.824Z,22.00
2019-04-20T08:37:48.877Z,22.10
2019-04-20T08:40:14.350Z,22.00
2019-04-20T08:42:56.024Z,22.10
2019-04-20T08:45:24.122Z,22.20
2019-04-20T08:47:57.004Z,22.30
2019-04-20T08:50:27.077Z,22.40
2019-04-20T08:53:15.658Z,22.40
2019-04-20T08:55:29.777Z,22.40
2019-04-20T08:57:49.208Z,22.50
2019-04-20T09:00:29.395Z,22.40
2019-04-20T09:03:09.316Z,22.30
2019-04-20T09:05:45.573Z,22.10
2019-04-20T09:08:14.390Z,21.90
2019-04-20T09:10:55.972Z,21.80
2019-04-20T09:13:21.281Z,21.50
2019-04-20T09:15:47.631Z,21.50
2019-04-20T09:18:40.067Z,21.40
2019-04-20T09:21:09.769Z,21.60
2019-04-20T09:23:54.596Z,21.70
2019-04-20T09:26:29.751Z,21.60
2019-04-20T09:28:59.122Z,21.50
2019-04-20T09:31:40.470Z,21.30
2019-04-20T09:34:42.779Z,21.20
2019-04-20T09:37:33.799Z,21.20
2019-04-20T09:40:21.640Z,21.00
2019-04-20T09:42:49.525Z,20.80
2019-04-20T09:45:33.013Z,20.60
2019-04-20T09:48:00.061Z,20.50
2019-04-20T09:50:50.945Z,20.50
2019-04-20T09:53:19.750Z,20.40
2019-04-20T09:55:59.324Z,20.30
2019-04-20T09:58:21.335Z,20.20
2019-04-20T10:01:00.817Z,20.30
2019-04-20T10:03:20.481Z,20.30
2019-04-20T10:05:51.912Z,20.30
2019-04-20T10:08:24.373Z,20.30
2019-04-20T10:10:56.194Z,20.20
2019-04-20T10:13:28.005Z,20.10
2019-04-20T10:15:59.709Z,20.10
2019-04-20T10:18:34.295Z,20.10
2019-04-20T10:21:05.834Z,20.10
2019-04-20T10:23:38.635Z,20.20
2019-04-20T10:26:10.680Z,20.20
2019-04-20T10:28:43.571Z,20.20
2019-04-20T10:31:14.986Z,20.20
2019-04-20T10:33:51.420Z,20.20
2019-04-20T10:36:37.484Z,20.10
2019-04-20T10:39:10.868Z,20.10
2019-04-20T10:41:50.153Z,20.00
2019-04-20T10:44:16.712Z,19.80
2019-04-20T10:46:49.153Z,19.70
2019-04-20T10:49:20.926Z,19.70
2019-04-20T10:51:53.577Z,19.70
2019-04-20T10:54:27.256Z,19.70
2019-04-20T10:57:01.405Z,19.60
2019-04-20T10:59:34.250Z,19.60
2019-04-20T11:02:07.935Z,19.60
2019-04-20T11:04:40.898Z,19.60
2019-04-20T11:07:12.505Z,19.70
2019-04-20T11:09:44.817Z,19.70
2019-04-20T11:12:16.648Z,19.60
2019-04-20T11:14:48.338Z,19.60
2019-04-20T11:17:20.430Z,19.50
2019-04-20T11:19:52.244Z,19.40
2019-04-20T11:22:24.161Z,19.40
2019-04-20T11:24:56.570Z,19.40
2019-04-20T11:27:29.940Z,19.40
2019-04-20T11:30:02.682Z,19.40
2019-04-20T11:32:35.998Z,19.40
2019-04-20T11:35:18.931Z,19.30
2019-04-20T11:37:42.793Z,19.30
2019-04-20T11:40:15.029Z,19.20
2019-04-20T11:42:47.832Z,19.10
2019-04-20T11:45:22.655Z,19.10
2019-04-20T11:47:55.624Z,19.00
2019-04-20T11:50:27.524Z,19.10
2019-04-20T11:52:59.365Z,19.00
2019-04-20T11:55:30.804Z,19.00
2019-04-20T11:58:03.711Z,19.00
2019-04-20T12:00:53.966Z,19.00
2019-04-20T12:03:24.812Z,19.10
2019-04-20T12:05:56.998Z,19.20
2019-04-20T12:08:25.189Z,19.20
2019-04-20T12:10:59.643Z,19.30
2019-04-20T12:13:34.505Z,19.30
2019-04-20T12:16:05.887Z,19.40
2019-04-20T12:18:37.941Z,19.50
2019-04-20T12:21:10.545Z,19.60
2019-04-20T12:23:42.390Z,19.60
2019-04-20T12:26:14.834Z,19.60
2019-04-20T12:28:47.614Z,19.60
2019-04-20T12:31:23.700Z,19.70
2019-04-20T12:33:53.001Z,19.60
2019-04-20T12:36:25.961Z,19.60
2019-04-20T12:38:57.588Z,19.60
2019-04-20T12:41:37.892Z,19.60
2019-04-20T12:44:03.778Z,19.60
2019-04-20T12:46:36.023Z,19.70
2019-04-20T12:49:07.837Z,19.70
2019-04-20T12:51:46.527Z,19.70
2019-04-20T12:54:12.855Z,19.80
2019-04-20T12:56:44.706Z,19.80
2019-04-20T12:59:16.210Z,19.90
2019-04-20T13:01:47.514Z,20.00
2019-04-20T13:04:18.905Z,20.10
2019-04-20T13:06:53.752Z,20.20
2019-04-20T13:09:26.301Z,20.20
2019-04-20T13:12:10.760Z,20.20
2019-04-20T13:16:02.619Z,20.20
2019-04-20T13:18:41.563Z,20.20
2019-04-20T13:21:16.759Z,20.20
2019-04-20T13:24:05.062Z,20.20
2019-04-20T13:26:40.758Z,20.20
2019-04-20T13:29:12.957Z,20.20
2019-04-20T13:31:50.154Z,20.20
2019-04-20T13:34:22.329Z,20.20
2019-04-20T13:36:53.773Z,20.20
2019-04-20T13:39:26.750Z,20.10
2019-04-20T13:42:09.569Z,20.10
2019-04-20T13:44:32.670Z,20.00
2019-04-20T13:47:05.114Z,20.00
2019-04-20T13:49:36.853Z,19.90
2019-04-20T13:52:08.801Z,19.90
2019-04-20T13:54:40.601Z,19.80
2019-04-20T13:57:19.743Z,19.80
2019-04-20T13:59:55.888Z,19.80
2019-04-20T14:02:48.898Z,19.80
2019-04-20T14:05:30.823Z,19.80
2019-04-20T14:08:05.754Z,19.80
2019-04-20T14:10:39.870Z,19.80
2019-04-20T14:13:16.597Z,19.70
2019-04-20T14:15:47.212Z,19.70
2019-04-20T14:18:19.431Z,19.60
2019-04-20T14:20:58.334Z,19.60
2019-04-20T14:23:32.757Z,19.50
2019-04-20T14:26:04.981Z,19.50
2019-04-20T14:28:36.793Z,19.50
2019-04-20T14:31:11.936Z,19.50
2019-04-20T14:33:44.660Z,19.50
2019-04-20T14:36:16.936Z,19.60
2019-04-20T14:38:49.788Z,19.60
2019-04-20T14:41:22.364Z,19.70
2019-04-20T14:43:57.273Z,19.80
2019-04-20T14:46:29.535Z,19.90
2019-04-20T14:49:03.350Z,19.90
2019-04-20T14:51:35.306Z,19.90
2019-04-20T14:54:09.633Z,20.00
2019-04-20T14:56:43.495Z,20.00
2019-04-20T14:59:21.631Z,20.00
2019-04-20T15:01:56.712Z,20.00
2019-04-20T15:04:30.226Z,20.00
2019-04-20T15:07:02.526Z,19.90
2019-04-20T15:09:37.539Z,19.90
2019-04-20T15:12:08.814Z,19.80
2019-04-20T15:14:43.157Z,19.80
2019-04-20T15:17:21.499Z,19.70
2019-04-20T15:20:09.914Z,19.60
2019-04-20T15:22:47.606Z,19.50
2019-04-20T15:25:18.987Z,19.40
2019-04-20T15:27:52.304Z,19.30
2019-04-20T15:30:24.438Z,19.20
2019-04-20T15:32:59.024Z,19.20
2019-04-20T15:35:30.192Z,19.10
2019-04-20T15:38:02.917Z,19.00
2019-04-20T15:40:35.242Z,18.90
2019-04-20T15:43:13.521Z,18.80
2019-04-20T15:45:43.331Z,18.70
2019-04-20T15:48:14.269Z,18.60
2019-04-20T15:50:46.104Z,18.50
2019-04-20T15:53:17.774Z,18.40
2019-04-20T15:55:50.506Z,18.20
2019-04-20T15:58:27.927Z,18.10
2019-04-20T16:01:00.532Z,18.00
2019-04-20T16:03:37.494Z,17.90
2019-04-20T16:06:11.363Z,17.80
2019-04-20T16:08:50.208Z,17.60
2019-04-20T16:11:21.897Z,17.50
2019-04-20T16:13:56.190Z,17.40
2019-04-20T16:16:29.958Z,17.20
2019-04-20T16:19:06.228Z,17.10
2019-04-20T16:21:37.364Z,17.10
2019-04-20T16:24:14.860Z,17.00
2019-04-20T16:26:51.595Z,16.90
2019-04-20T16:29:23.955Z,16.80
2019-04-20T16:31:58.327Z,16.80
2019-04-20T16:34:31.659Z,16.70
2019-04-20T16:37:04.281Z,16.70
2019-04-20T16:39:40.704Z,16.60
2019-04-20T16:42:14.569Z,16.60
2019-04-20T16:44:47.211Z,16.60
2019-04-20T16:47:21.883Z,16.50
2019-04-20T16:49:55.026Z,16.40
2019-04-20T16:52:26.602Z,16.30
2019-04-20T16:55:02.166Z,16.30
2019-04-20T16:57:35.137Z,16.20
2019-04-20T17:00:07.739Z,16.20
2019-04-20T17:02:40.434Z,16.10
2019-04-20T17:05:13.401Z,16.10
2019-04-20T17:07:47.047Z,16.00
2019-04-20T17:10:22.354Z,16.00
2019-04-20T17:12:53.691Z,15.90
2019-04-20T17:15:25.537Z,15.90
2019-04-20T17:17:58.963Z,15.80
2019-04-20T17:20:30.758Z,15.80
2019-04-20T17:23:05.621Z,15.70
2019-04-20T17:25:35.561Z,15.70
2019-04-20T17:28:28.896Z,15.60
2019-04-20T17:31:13.521Z,15.60
2019-04-20T17:33:58.960Z,15.50
2019-04-20T17:36:28.934Z,15.40
2019-04-20T17:38:59.765Z,15.30
2019-04-20T17:41:48.912Z,15.30
2019-04-20T17:44:27.878Z,15.20
2019-04-20T17:46:48.970Z,15.10
2019-04-20T17:49:25.952Z,15.10
2019-04-20T17:52:12.646Z,15.00
2019-04-20T17:54:22.833Z,14.90
2019-04-20T17:56:54.420Z,14.80
2019-04-20T17:59:28.377Z,14.80
2019-04-20T18:02:43.198Z,14.70
2019-04-20T18:05:39.393Z,14.60
2019-04-20T18:08:15.391Z,14.50
2019-04-20T18:10:40.381Z,14.50
2019-04-20T18:13:05.715Z,14.40
2019-04-20T18:15:45.491Z,14.30
2019-04-20T18:18:35.468Z,14.30
2019-04-20T18:21:18.977Z,14.20
2019-04-20T18:23:51.803Z,14.10
2019-04-20T18:26:43.214Z,14.00
2019-04-20T18:31:45.356Z,13.90
2019-04-20T18:34:25.379Z,13.80
2019-04-20T18:36:56.386Z,13.80
2019-04-20T18:39:37.457Z,13.70
2019-04-20T18:42:11.110Z,13.60
2019-04-20T18:44:54.595Z,13.60
2019-04-20T18:47:28.997Z,13.50
2019-04-20T18:49:54.964Z,13.50
2019-04-20T18:52:17.806Z,13.40
2019-04-20T18:54:52.005Z,13.40
2019-04-20T18:57:26.050Z,13.30
2019-04-20T18:59:57.224Z,13.20
2019-04-20T19:02:33.482Z,13.20
2019-04-20T19:05:03.844Z,13.10
2019-04-20T19:07:41.464Z,13.00
2019-04-20T19:10:19.558Z,13.00
2019-04-20T19:12:53.475Z,12.90
2019-04-20T19:16:00.138Z,12.90
2019-04-20T19:18:45.244Z,12.80
2019-04-20T19:21:04.495Z,12.80
2019-04-20T19:23:40.531Z,12.70
2019-04-20T19:26:15.464Z,12.70
2019-04-20T19:28:46.974Z,12.70
2019-04-20T19:31:32.787Z,12.60
2019-04-20T19:34:06.205Z,12.60
2019-04-20T19:36:31.996Z,12.60
2019-04-20T19:39:17.261Z,12.50
2019-04-20T19:41:40.685Z,12.50
2019-04-20T19:44:13.574Z,12.40
2019-04-20T19:46:55.007Z,12.40
2019-04-20T19:49:21.678Z,12.30
2019-04-20T19:52:13.237Z,12.30
2019-04-20T19:54:38.622Z,12.20
2019-04-20T19:57:04.909Z,12.10
2019-04-20T19:59:31.527Z,12.10
2019-04-20T20:02:05.532Z,12.00
2019-04-20T20:04:48.620Z,11.90
2019-04-20T20:07:21.962Z,11.80
2019-04-20T20:09:54.655Z,11.70
2019-04-20T20:12:21.340Z,11.60
2019-04-20T20:14:53.486Z,11.50
2019-04-20T20:17:45.603Z,11.50
2019-04-20T20:22:37.749Z,11.30
2019-04-20T20:25:05.700Z,11.20
2019-04-20T20:27:47.908Z,11.20
2019-04-20T20:30:21.546Z,11.10
2019-04-20T20:33:01.299Z,11.00
2019-04-20T20:35:23.656Z,11.00
2019-04-20T20:37:57.129Z,10.90
2019-04-20T20:40:29.890Z,10.80
2019-04-20T20:43:08.392Z,10.80
2019-04-20T20:45:38.476Z,10.70
2019-04-20T20:48:22.683Z,10.70
2019-04-20T20:50:53.321Z,10.60
2019-04-20T20:53:18.723Z,10.60
2019-04-20T20:55:47.964Z,10.50
2019-04-20T20:58:32.365Z,10.50
2019-04-20T21:00:57.622Z,10.40
2019-04-20T21:03:31.238Z,10.40
2019-04-20T21:05:59.836Z,10.40
2019-04-20T21:08:35.273Z,10.30
2019-04-20T21:11:14.734Z,10.30
2019-04-20T21:13:42.855Z,10.30
2019-04-20T21:16:17.310Z,10.20
2019-04-20T21:19:03.210Z,10.20
2019-04-20T21:21:34.917Z,10.20
2019-04-20T21:24:06.300Z,10.10
2019-04-20T21:26:35.647Z,10.10
2019-04-20T21:29:03.913Z,10.10
2019-04-20T21:31:36.687Z,10.00
2019-04-20T21:34:15.131Z,10.00
2019-04-20T21:36:43.410Z,10.00
2019-04-20T21:39:21.471Z,9.90
2019-04-20T21:41:56.825Z,9.90
2019-04-20T21:44:28.707Z,9.90
2019-04-20T21:46:56.725Z,9.80
2019-04-20T21:49:42.291Z,9.80
2019-04-20T21:52:06.543Z,9.80
2019-04-20T21:54:36.029Z,9.70
2019-04-20T21:57:10.799Z,9.70
2019-04-20T21:59:45.019Z,9.70
2019-04-20T22:02:21.691Z,9.70
2019-04-20T22:04:51.512Z,9.70
2019-04-20T22:07:22.979Z,9.60
2019-04-20T22:09:55.383Z,9.60
2019-04-20T22:12:37.856Z,9.50
2019-04-20T22:15:10.127Z,9.50
2019-04-20T22:17:36.363Z,9.50
2019-04-20T22:20:20.144Z,9.40
2019-04-20T22:22:57.172Z,9.40
2019-04-20T22:25:33.213Z,9.30
2019-04-20T22:27:50.402Z,9.30
2019-04-20T22:30:22.139Z,9.30
2019-04-20T22:32:56.580Z,9.20
2019-04-20T22:35:31.195Z,9.20
2019-04-20T22:38:14.270Z,9.20
2019-04-20T22:40:48.999Z,9.20
2019-04-20T22:43:33.705Z,9.10
2019-04-20T22:46:25.819Z,9.10
2019-04-20T22:49:07.209Z,9.10
2019-04-20T22:51:39.962Z,9.10
2019-04-20T22:56:44.060Z,9.00
2019-04-20T22:59:12.548Z,9.00
2019-04-20T23:01:45.853Z,9.00
2019-04-20T23:04:12.804Z,9.00
2019-04-20T23:06:48.539Z,8.90
2019-04-20T23:09:18.842Z,8.90
2019-04-20T23:11:54.641Z,8.90
2019-04-20T23:14:24.669Z,8.80
2019-04-20T23:16:57.577Z,8.80
2019-04-20T23:19:40.669Z,8.70
2019-04-20T23:22:09.918Z,8.70
2019-04-20T23:24:39.673Z,8.70
2019-04-20T23:27:18.139Z,8.70
2019-04-20T23:29:45.210Z,8.60
2019-04-20T23:32:19.487Z,8.60
2019-04-20T23:34:57.640Z,8.60
2019-04-20T23:37:31.446Z,8.50
2019-04-20T23:40:00.441Z,8.50
2019-04-20T23:42:45.869Z,8.50
2019-04-20T23:45:43.853Z,8.50
2019-04-20T23:48:22.701Z,8.40
2019-04-20T23:51:11.218Z,8.40
2019-04-20T23:53:48.834Z,8.40
2019-04-20T23:56:15.641Z,8.30
2019-04-20T23:58:46.585Z,8.30
